aviador You're here:

OIZH Decoded Metar

ZAHEDAN in IRAN
Report Time2017-12-11 09:00:00
UTC Time2017-12-11 09:20:03
Flight Rules vfr VFR
Wind010° at 06 kt
W.Decomp.*RWY 35: 5.7 kt HW 2.0 kt RCW
W.Rank010° ranks 1
Current wind is below 010° avg. (8.2)
Visibility9999 m
Phenomena:N/A
Clouds:N/A
Expected CloudBase > 11,200 ft AGL from Temp-Dew spread
CeilingNone
Temp14°C (ISA +8)
Dew Point-14°C (13% RH)
AAT8.5°C
QNH1019 hPa
Density Alt5,256 ft
Elevation4,495 ft
Report Wrong Elevation
Raw Report
METAR OIZH 110900Z 01006KT CAVOK 14/M14 Q1019 A3010 NOSIG=

Extra information for OIZH:More info

Metar Taf Metar & Taf Last 4 Metars F.Rules Stats Wind Profile Meteogram Temp Stats Airport Information Weather charts Add Link Nearby VenuesMetar ALERT Operation Metar Decoded Social comments